Time;durP1;ratioP1;P1;durP2;ratioP2;P2;SDS_P1;SDS_P2;PMS_P1;PMS_P2;Temp;Humidity;BMP_temperature;BMP_pressure;BME280_temperature;BME280_humidity;BME280_pressure;Samples;Min_cycle;Max_cycle;Signal;HPM_P1;HPM_P2
2023/08/25 00:00:27;;;;;;;43.30;25.10;;;;;;;;;;5069260;28;20384;-69
2023/08/25 00:02:54;;;;;;;47.92;24.85;;;;;;;;;;5061896;28;20064;-69
2023/08/25 00:05:23;;;;;;;52.08;25.02;;;;;;;;;;5071460;28;20045;-69
2023/08/25 00:07:50;;;;;;;50.90;25.48;;;;;;;;;;5070923;28;20460;-69
2023/08/25 00:10:17;;;;;;;52.50;24.50;;;;;;;;;;5059265;28;20048;-69
2023/08/25 00:12:46;;;;;;;47.10;25.23;;;;;;;;;;5068771;28;20045;-69
2023/08/25 00:15:14;;;;;;;50.70;25.10;;;;;;;;;;5069910;28;20535;-69
2023/08/25 00:17:41;;;;;;;47.85;25.00;;;;;;;;;;5069152;28;20123;-68
2023/08/25 00:20:12;;;;;;;53.30;26.13;;;;;;;;;;5061318;28;20045;-68
2023/08/25 00:22:40;;;;;;;53.10;25.08;;;;;;;;;;5051832;28;20060;-69
2023/08/25 00:25:08;;;;;;;46.28;25.40;;;;;;;;;;5076597;28;20048;-68
2023/08/25 00:27:36;;;;;;;49.90;26.05;;;;;;;;;;5067188;28;20044;-68
2023/08/25 00:30:03;;;;;;;52.17;26.88;;;;;;;;;;5070765;28;20052;-69
2023/08/25 00:32:30;;;;;;;51.97;26.73;;;;;;;;;;5068190;28;20420;-68
2023/08/25 00:34:57;;;;;;;55.05;26.70;;;;;;;;;;5054103;28;20056;-69
2023/08/25 00:37:25;;;;;;;50.80;25.67;;;;;;;;;;5070579;28;20048;-68
2023/08/25 00:39:53;;;;;;;55.63;27.13;;;;;;;;;;5063912;28;20053;-68
2023/08/25 00:42:20;;;;;;;51.45;26.85;;;;;;;;;;5068916;28;20052;-69
2023/08/25 00:44:48;;;;;;;64.82;28.02;;;;;;;;;;5067100;28;20044;-68
2023/08/25 00:47:15;;;;;;;57.55;28.70;;;;;;;;;;5062657;28;20047;-69
2023/08/25 00:49:43;;;;;;;62.80;27.90;;;;;;;;;;5069765;28;20424;-69
2023/08/25 00:52:11;;;;;;;59.50;28.58;;;;;;;;;;5066022;28;20049;-68
2023/08/25 00:54:39;;;;;;;64.75;27.33;;;;;;;;;;5066035;28;20044;-69
2023/08/25 00:57:08;;;;;;;63.50;28.83;;;;;;;;;;5070157;28;20055;-69
2023/08/25 00:59:35;;;;;;;75.95;30.25;;;;;;;;;;5071323;28;20053;-69
2023/08/25 01:02:03;;;;;;;68.25;30.88;;;;;;;;;;5070152;28;20146;-69
2023/08/25 01:04:31;;;;;;;71.88;31.48;;;;;;;;;;5068126;28;20859;-69
2023/08/25 01:06:58;;;;;;;80.65;32.00;;;;;;;;;;5064358;28;20048;-69
2023/08/25 01:09:26;;;;;;;100.38;34.22;;;;;;;;;;5065994;28;20060;-69
2023/08/25 01:12:04;;;;;;;111.63;34.35;;;;;;;;;;5045805;28;20060;-69
2023/08/25 01:14:40;;;;;;;110.28;35.25;;;;;;;;;;5051392;28;20098;-69
2023/08/25 01:17:11;;;;;;;106.15;35.83;;;;;;;;;;5065043;28;20052;-69
2023/08/25 01:19:56;;;;;;;110.53;36.35;;;;;;;;;;5065505;28;20113;-69
2023/08/25 01:22:26;;;;;;;118.80;39.10;;;;;;;;;;5066298;28;20411;-69
2023/08/25 01:24:54;;;;;;;129.43;37.65;;;;;;;;;;5054063;28;20121;-69
2023/08/25 01:27:23;;;;;;;133.02;40.72;;;;;;;;;;5066277;28;20487;-68
2023/08/25 01:29:50;;;;;;;124.43;37.85;;;;;;;;;;5061032;28;20415;-68
2023/08/25 01:32:19;;;;;;;119.95;39.58;;;;;;;;;;5069441;28;20391;-69
2023/08/25 01:34:46;;;;;;;118.43;37.60;;;;;;;;;;5068898;28;20044;-69
2023/08/25 01:37:18;;;;;;;134.18;39.63;;;;;;;;;;5064458;28;20048;-69
2023/08/25 01:39:46;;;;;;;125.80;38.78;;;;;;;;;;5065040;28;20049;-69
2023/08/25 01:42:16;;;;;;;124.35;39.92;;;;;;;;;;5041205;28;20041;-69
2023/08/25 01:44:46;;;;;;;122.40;39.20;;;;;;;;;;5058434;28;20064;-69
2023/08/25 01:47:14;;;;;;;115.15;37.65;;;;;;;;;;5054684;28;20057;-68
2023/08/25 01:49:41;;;;;;;114.00;37.95;;;;;;;;;;5062947;28;21837;-69
2023/08/25 01:52:12;;;;;;;114.63;37.75;;;;;;;;;;5068626;28;20048;-69
2023/08/25 01:54:40;;;;;;;122.95;40.08;;;;;;;;;;5039994;28;20621;-69
2023/08/25 01:57:07;;;;;;;115.53;39.30;;;;;;;;;;5070315;28;20048;-69
2023/08/25 01:59:34;;;;;;;124.07;39.30;;;;;;;;;;5067936;28;20052;-70
2023/08/25 02:02:03;;;;;;;122.43;39.90;;;;;;;;;;5062937;28;20057;-70
2023/08/25 02:04:30;;;;;;;123.10;39.97;;;;;;;;;;5045992;28;20057;-70
2023/08/25 02:06:57;;;;;;;127.38;42.30;;;;;;;;;;5063691;28;20383;-70
2023/08/25 02:09:25;;;;;;;149.18;44.75;;;;;;;;;;5065300;28;20058;-69
2023/08/25 02:11:52;;;;;;;145.82;45.38;;;;;;;;;;5065532;28;20086;-70
2023/08/25 02:14:19;;;;;;;137.68;42.63;;;;;;;;;;5068542;28;20051;-70
2023/08/25 02:16:46;;;;;;;142.68;44.28;;;;;;;;;;5068658;28;20048;-70
2023/08/25 02:19:15;;;;;;;120.88;41.83;;;;;;;;;;5058895;28;20044;-70
2023/08/25 02:21:42;;;;;;;123.13;42.03;;;;;;;;;;5066012;28;20044;-69
2023/08/25 02:24:09;;;;;;;115.72;39.47;;;;;;;;;;5068423;28;20036;-70
2023/08/25 02:26:37;;;;;;;102.93;38.97;;;;;;;;;;5067844;28;20059;-70
2023/08/25 02:29:04;;;;;;;104.38;39.05;;;;;;;;;;5069599;28;20056;-70
2023/08/25 02:31:32;;;;;;;105.55;37.88;;;;;;;;;;5068379;28;20055;-69
2023/08/25 02:33:59;;;;;;;122.18;41.65;;;;;;;;;;5068305;28;20432;-70
2023/08/25 02:36:27;;;;;;;112.03;39.15;;;;;;;;;;5066416;28;20040;-69
2023/08/25 02:38:55;;;;;;;116.93;39.92;;;;;;;;;;5062134;28;20114;-70
2023/08/25 02:41:22;;;;;;;129.75;43.90;;;;;;;;;;5069732;28;20056;-69
2023/08/25 02:43:49;;;;;;;120.18;41.72;;;;;;;;;;5068448;28;20373;-70
2023/08/25 02:46:16;;;;;;;132.05;44.35;;;;;;;;;;5069421;28;20048;-71
2023/08/25 02:48:43;;;;;;;126.68;42.80;;;;;;;;;;5056970;28;20053;-70
2023/08/25 02:51:11;;;;;;;111.90;38.72;;;;;;;;;;5063767;28;20056;-70
2023/08/25 02:53:39;;;;;;;126.03;43.17;;;;;;;;;;5066654;28;20048;-70
2023/08/25 02:56:06;;;;;;;131.75;41.50;;;;;;;;;;5053778;28;20463;-69
2023/08/25 02:58:34;;;;;;;126.50;42.97;;;;;;;;;;5064702;28;20052;-70
2023/08/25 03:01:02;;;;;;;132.00;43.83;;;;;;;;;;5068206;28;20134;-70
2023/08/25 03:03:29;;;;;;;128.70;42.58;;;;;;;;;;5050320;28;20078;-69
2023/08/25 03:05:59;;;;;;;134.70;44.58;;;;;;;;;;5063197;28;20574;-70
2023/08/25 03:08:27;;;;;;;135.68;42.85;;;;;;;;;;5064590;28;20454;-69
2023/08/25 03:10:55;;;;;;;123.05;43.75;;;;;;;;;;5068418;28;20055;-70
2023/08/25 03:13:22;;;;;;;119.88;44.10;;;;;;;;;;5066514;28;20048;-70
2023/08/25 03:15:51;;;;;;;135.02;44.60;;;;;;;;;;5066466;28;20480;-70
2023/08/25 03:18:19;;;;;;;136.65;43.22;;;;;;;;;;5068890;28;20517;-70
2023/08/25 03:20:51;;;;;;;136.07;43.85;;;;;;;;;;5071778;28;20067;-70
2023/08/25 03:23:18;;;;;;;111.88;38.67;;;;;;;;;;5067209;28;20553;-70
2023/08/25 03:25:46;;;;;;;119.85;41.05;;;;;;;;;;5063612;28;20047;-70
2023/08/25 03:28:14;;;;;;;135.77;42.75;;;;;;;;;;5071232;28;20696;-69
2023/08/25 03:30:41;;;;;;;127.25;43.42;;;;;;;;;;5069191;28;20102;-70
2023/08/25 03:33:09;;;;;;;140.25;44.63;;;;;;;;;;5050729;28;20063;-70
2023/08/25 03:35:36;;;;;;;125.75;43.63;;;;;;;;;;5053971;28;20056;-69
2023/08/25 03:38:04;;;;;;;126.03;42.40;;;;;;;;;;5068945;28;20044;-70
2023/08/25 03:40:32;;;;;;;126.35;44.55;;;;;;;;;;5070812;28;20044;-69
2023/08/25 03:42:59;;;;;;;132.30;43.33;;;;;;;;;;5064056;28;20048;-70
2023/08/25 03:45:28;;;;;;;127.00;43.95;;;;;;;;;;5063886;28;20387;-70
2023/08/25 03:47:55;;;;;;;116.35;40.45;;;;;;;;;;5053633;28;20606;-70
2023/08/25 03:50:23;;;;;;;131.18;43.40;;;;;;;;;;5066606;28;20051;-70
2023/08/25 03:52:52;;;;;;;118.43;40.95;;;;;;;;;;5071011;28;20048;-70
2023/08/25 03:55:19;;;;;;;117.50;41.85;;;;;;;;;;5071503;28;20045;-70
2023/08/25 03:57:47;;;;;;;112.65;43.45;;;;;;;;;;5065177;28;20708;-70
2023/08/25 04:00:14;;;;;;;122.68;43.95;;;;;;;;;;5069857;28;20052;-70
2023/08/25 04:02:43;;;;;;;109.25;41.03;;;;;;;;;;5055709;28;20048;-70
2023/08/25 04:05:10;;;;;;;105.95;40.28;;;;;;;;;;5069988;28;20052;-70
2023/08/25 04:07:38;;;;;;;104.78;39.97;;;;;;;;;;5071910;28;20049;-70
2023/08/25 04:10:05;;;;;;;109.53;40.67;;;;;;;;;;5060146;28;21162;-69
2023/08/25 04:12:32;;;;;;;104.20;40.30;;;;;;;;;;5066908;28;20052;-70
2023/08/25 04:14:59;;;;;;;101.88;40.33;;;;;;;;;;5070353;28;20045;-71
2023/08/25 04:17:27;;;;;;;101.25;39.40;;;;;;;;;;5070332;28;20048;-70
2023/08/25 04:19:55;;;;;;;98.22;39.10;;;;;;;;;;5066578;28;20174;-70
2023/08/25 04:22:22;;;;;;;97.00;38.65;;;;;;;;;;5066824;28;20086;-70
2023/08/25 04:24:50;;;;;;;104.43;36.88;;;;;;;;;;5064700;28;20049;-70
2023/08/25 04:27:17;;;;;;;95.75;38.00;;;;;;;;;;5066033;28;20161;-70
2023/08/25 04:29:44;;;;;;;89.25;37.90;;;;;;;;;;5056925;28;20053;-70
2023/08/25 04:32:11;;;;;;;92.82;36.88;;;;;;;;;;5070032;28;20048;-70
2023/08/25 04:34:38;;;;;;;85.53;38.42;;;;;;;;;;5068803;28;20041;-69
2023/08/25 04:37:07;;;;;;;84.60;36.55;;;;;;;;;;5068748;28;20048;-70
2023/08/25 04:39:35;;;;;;;79.35;36.35;;;;;;;;;;5065385;28;20051;-71
2023/08/25 04:42:02;;;;;;;83.38;36.47;;;;;;;;;;5067421;28;20056;-69
2023/08/25 04:44:29;;;;;;;77.63;35.80;;;;;;;;;;5062989;28;20459;-70
2023/08/25 04:46:57;;;;;;;91.50;37.35;;;;;;;;;;5063586;28;20101;-70
2023/08/25 04:49:25;;;;;;;70.57;31.83;;;;;;;;;;5066465;28;20494;-70
2023/08/25 04:51:52;;;;;;;58.95;30.15;;;;;;;;;;5069005;28;20071;-69
2023/08/25 04:54:20;;;;;;;73.57;34.90;;;;;;;;;;5065184;28;20052;-70
2023/08/25 04:56:48;;;;;;;62.33;30.80;;;;;;;;;;5067610;28;20049;-70
2023/08/25 04:59:15;;;;;;;80.32;34.00;;;;;;;;;;5063823;28;20401;-70
2023/08/25 05:01:42;;;;;;;85.78;31.38;;;;;;;;;;5069441;28;20050;-70
2023/08/25 05:04:11;;;;;;;70.55;32.42;;;;;;;;;;5052679;28;20063;-70
2023/08/25 05:06:38;;;;;;;66.60;33.97;;;;;;;;;;5069554;28;20080;-70
2023/08/25 05:09:05;;;;;;;60.08;31.65;;;;;;;;;;5067835;28;20060;-70
2023/08/25 05:11:34;;;;;;;80.10;33.90;;;;;;;;;;5069256;28;20091;-69
2023/08/25 05:14:02;;;;;;;70.05;32.13;;;;;;;;;;5070572;28;20045;-70
2023/08/25 05:16:29;;;;;;;63.63;31.52;;;;;;;;;;5069648;28;20052;-70
2023/08/25 05:18:56;;;;;;;73.35;33.22;;;;;;;;;;5069962;28;20049;-69
2023/08/25 05:21:24;;;;;;;67.70;34.20;;;;;;;;;;5070346;28;20047;-70
2023/08/25 05:23:53;;;;;;;71.38;34.22;;;;;;;;;;5068284;28;20049;-70
2023/08/25 05:26:20;;;;;;;68.70;32.83;;;;;;;;;;5068738;28;21143;-70
2023/08/25 05:28:49;;;;;;;60.22;31.92;;;;;;;;;;5062774;28;20075;-70
2023/08/25 05:31:16;;;;;;;61.53;30.15;;;;;;;;;;5066711;28;20059;-70
2023/08/25 05:33:43;;;;;;;60.65;29.88;;;;;;;;;;5065938;28;20045;-70
2023/08/25 05:36:10;;;;;;;59.40;29.83;;;;;;;;;;5067025;28;20058;-69
2023/08/25 05:38:38;;;;;;;46.05;26.00;;;;;;;;;;5067484;28;20071;-71
2023/08/25 05:41:05;;;;;;;45.47;23.92;;;;;;;;;;5064205;28;20049;-69
2023/08/25 05:43:32;;;;;;;35.55;21.85;;;;;;;;;;5068224;28;20040;-70
2023/08/25 05:46:01;;;;;;;40.85;21.60;;;;;;;;;;5067493;28;20051;-69
2023/08/25 05:48:28;;;;;;;35.30;20.70;;;;;;;;;;5068942;28;20041;-70
2023/08/25 05:50:55;;;;;;;37.08;19.70;;;;;;;;;;5067506;28;20052;-70
2023/08/25 05:53:22;;;;;;;36.00;19.55;;;;;;;;;;5066427;28;20044;-69
2023/08/25 05:55:50;;;;;;;29.02;18.45;;;;;;;;;;5065756;28;20060;-70
2023/08/25 05:58:17;;;;;;;31.60;18.38;;;;;;;;;;5061375;28;20048;-70
2023/08/25 06:00:45;;;;;;;28.90;17.70;;;;;;;;;;5065642;28;20053;-70
2023/08/25 06:03:13;;;;;;;29.92;17.90;;;;;;;;;;5051570;28;20183;-70
2023/08/25 06:05:40;;;;;;;27.92;18.08;;;;;;;;;;5063863;28;20056;-70
2023/08/25 06:08:08;;;;;;;27.45;17.80;;;;;;;;;;5062931;28;20056;-69
2023/08/25 06:10:36;;;;;;;29.42;17.85;;;;;;;;;;5057730;28;20107;-70
2023/08/25 06:13:03;;;;;;;20.63;12.40;;;;;;;;;;5060161;28;20044;-68
2023/08/25 06:15:30;;;;;;;24.25;14.88;;;;;;;;;;5054424;28;20052;-69
2023/08/25 06:17:57;;;;;;;27.83;16.38;;;;;;;;;;5062749;28;20051;-69
2023/08/25 06:20:26;;;;;;;31.98;18.20;;;;;;;;;;5065108;28;20515;-71
2023/08/25 06:22:53;;;;;;;29.23;18.50;;;;;;;;;;5067675;28;20044;-70
2023/08/25 06:25:21;;;;;;;30.80;18.88;;;;;;;;;;5068966;28;20048;-70
2023/08/25 06:27:48;;;;;;;36.65;18.52;;;;;;;;;;5067973;28;20147;-70
2023/08/25 06:30:16;;;;;;;29.92;18.13;;;;;;;;;;5063341;28;20537;-69
2023/08/25 06:32:43;;;;;;;31.00;18.42;;;;;;;;;;5064639;28;20616;-70
2023/08/25 06:35:11;;;;;;;31.45;19.05;;;;;;;;;;5061371;28;20040;-69
2023/08/25 06:37:40;;;;;;;33.63;19.23;;;;;;;;;;5063592;28;20064;-70
2023/08/25 06:40:08;;;;;;;32.78;19.25;;;;;;;;;;5056816;28;20059;-70
2023/08/25 06:42:37;;;;;;;31.00;18.08;;;;;;;;;;5058405;28;20044;-70
2023/08/25 06:45:04;;;;;;;28.88;17.17;;;;;;;;;;5066816;28;20044;-70
2023/08/25 06:47:34;;;;;;;30.92;18.08;;;;;;;;;;5060387;28;20052;-69
2023/08/25 06:50:01;;;;;;;33.08;17.98;;;;;;;;;;5070715;28;20102;-70
2023/08/25 06:52:28;;;;;;;31.55;18.88;;;;;;;;;;5067926;28;20041;-70
2023/08/25 06:54:57;;;;;;;35.38;19.05;;;;;;;;;;5062119;28;21134;-70
2023/08/25 06:57:24;;;;;;;39.63;20.17;;;;;;;;;;5069568;28;20496;-69
2023/08/25 06:59:52;;;;;;;36.45;20.58;;;;;;;;;;5067146;28;20091;-69
2023/08/25 07:02:19;;;;;;;40.58;21.67;;;;;;;;;;5069533;28;20041;-70
2023/08/25 07:04:46;;;;;;;36.58;21.23;;;;;;;;;;5071538;28;20488;-70
2023/08/25 07:07:13;;;;;;;48.50;22.52;;;;;;;;;;5063535;28;20488;-69
2023/08/25 07:09:41;;;;;;;45.50;22.13;;;;;;;;;;5066039;28;20045;-69
2023/08/25 07:12:10;;;;;;;39.15;20.60;;;;;;;;;;5053888;28;20045;-70
2023/08/25 07:14:37;;;;;;;46.25;21.35;;;;;;;;;;5063986;28;20060;-70
2023/08/25 07:17:04;;;;;;;42.28;19.60;;;;;;;;;;5052946;28;20423;-69
2023/08/25 07:19:31;;;;;;;42.72;19.42;;;;;;;;;;5064579;28;20071;-69
2023/08/25 07:21:59;;;;;;;38.92;19.55;;;;;;;;;;5059349;28;20049;-70
2023/08/25 07:24:26;;;;;;;40.28;19.75;;;;;;;;;;5064763;28;20040;-70
2023/08/25 07:26:53;;;;;;;33.75;19.45;;;;;;;;;;5067074;28;20527;-69
2023/08/25 07:29:22;;;;;;;31.23;16.60;;;;;;;;;;5070608;28;20045;-70
2023/08/25 07:31:49;;;;;;;38.35;18.73;;;;;;;;;;5072574;28;20126;-69
2023/08/25 07:34:16;;;;;;;32.22;17.92;;;;;;;;;;5067510;28;20040;-70
2023/08/25 07:36:44;;;;;;;35.55;18.73;;;;;;;;;;5072449;28;20052;-69
2023/08/25 07:39:11;;;;;;;32.00;15.88;;;;;;;;;;5059644;28;20132;-70
2023/08/25 07:41:39;;;;;;;38.28;18.70;;;;;;;;;;5060317;28;20049;-70
2023/08/25 07:44:08;;;;;;;40.85;18.70;;;;;;;;;;5064872;28;20484;-69
2023/08/25 07:46:37;;;;;;;38.90;17.77;;;;;;;;;;5066831;28;20049;-70
2023/08/25 07:49:04;;;;;;;32.17;17.52;;;;;;;;;;5052016;28;20053;-70
2023/08/25 07:51:32;;;;;;;34.33;17.65;;;;;;;;;;5046734;28;20056;-70
2023/08/25 07:53:59;;;;;;;35.65;18.13;;;;;;;;;;5061723;28;20045;-69
2023/08/25 07:56:27;;;;;;;36.38;18.10;;;;;;;;;;5072320;28;20052;-70
2023/08/25 07:58:54;;;;;;;35.03;17.25;;;;;;;;;;5074581;28;20059;-69
2023/08/25 08:01:21;;;;;;;40.05;19.38;;;;;;;;;;5064137;28;20484;-69
2023/08/25 08:03:50;;;;;;;34.00;16.92;;;;;;;;;;5048634;28;20533;-70
2023/08/25 08:06:18;;;;;;;32.58;16.10;;;;;;;;;;5058486;28;20053;-69
2023/08/25 08:08:45;;;;;;;34.65;16.58;;;;;;;;;;5069796;28;20053;-70
2023/08/25 08:11:13;;;;;;;29.85;15.32;;;;;;;;;;5071753;28;20059;-70
2023/08/25 08:13:40;;;;;;;27.70;15.57;;;;;;;;;;5070817;28;20049;-70
2023/08/25 08:16:07;;;;;;;28.73;14.85;;;;;;;;;;5072220;28;20054;-70
2023/08/25 08:18:34;;;;;;;26.25;15.07;;;;;;;;;;5065843;28;20102;-70
2023/08/25 08:21:03;;;;;;;32.30;15.32;;;;;;;;;;5066824;28;20500;-70
2023/08/25 08:23:30;;;;;;;29.92;15.13;;;;;;;;;;5071367;28;20076;-69
2023/08/25 08:25:58;;;;;;;27.33;14.38;;;;;;;;;;5053256;28;20052;-70
2023/08/25 08:28:25;;;;;;;25.88;14.18;;;;;;;;;;5071710;28;20045;-69
2023/08/25 08:30:52;;;;;;;23.73;13.88;;;;;;;;;;5071929;28;20074;-69
2023/08/25 08:33:20;;;;;;;23.55;14.13;;;;;;;;;;5067249;28;20059;-69
2023/08/25 08:35:47;;;;;;;34.00;15.40;;;;;;;;;;5070614;28;20052;-69
2023/08/25 08:38:16;;;;;;;25.25;14.25;;;;;;;;;;5059435;28;20052;-69
2023/08/25 08:40:43;;;;;;;26.15;14.98;;;;;;;;;;5068355;28;20102;-69
2023/08/25 08:43:14;;;;;;;25.10;15.68;;;;;;;;;;5067521;28;20048;-70
2023/08/25 08:45:43;;;;;;;27.73;15.52;;;;;;;;;;5068425;28;20079;-70
2023/08/25 08:48:11;;;;;;;27.17;14.70;;;;;;;;;;5065068;28;20057;-70
2023/08/25 08:50:38;;;;;;;26.27;13.85;;;;;;;;;;5071442;28;20052;-69
2023/08/25 08:53:07;;;;;;;26.42;13.52;;;;;;;;;;5067202;28;20064;-70
2023/08/25 08:55:38;;;;;;;21.45;13.55;;;;;;;;;;5068524;28;20076;-69
2023/08/25 08:58:05;;;;;;;25.58;14.02;;;;;;;;;;5068204;28;20044;-69
2023/08/25 09:00:33;;;;;;;26.17;13.98;;;;;;;;;;5051370;28;20048;-69
2023/08/25 09:03:01;;;;;;;21.13;12.48;;;;;;;;;;5069084;28;20059;-70
2023/08/25 09:05:29;;;;;;;28.80;14.05;;;;;;;;;;5051718;28;20052;-69
2023/08/25 09:07:58;;;;;;;23.73;12.77;;;;;;;;;;5071127;28;20040;-70
2023/08/25 09:10:26;;;;;;;19.52;11.82;;;;;;;;;;5069178;28;20120;-70
2023/08/25 09:12:54;;;;;;;24.27;12.80;;;;;;;;;;5070173;28;20139;-69
2023/08/25 09:15:25;;;;;;;24.38;11.98;;;;;;;;;;5069237;28;20051;-69
2023/08/25 09:17:54;;;;;;;21.13;11.68;;;;;;;;;;5056854;28;20480;-68
2023/08/25 09:20:22;;;;;;;20.08;12.60;;;;;;;;;;5066607;28;20044;-70
2023/08/25 09:22:55;;;;;;;19.85;12.68;;;;;;;;;;5061224;28;20071;-70
2023/08/25 09:25:22;;;;;;;22.17;12.02;;;;;;;;;;5066437;28;20052;-69
2023/08/25 09:27:54;;;;;;;19.80;12.05;;;;;;;;;;5063438;28;20055;-69
2023/08/25 09:30:33;;;;;;;21.60;12.23;;;;;;;;;;5063049;28;20530;-69
2023/08/25 09:33:02;;;;;;;19.88;12.25;;;;;;;;;;5065831;28;20052;-69
2023/08/25 09:35:30;;;;;;;18.23;11.57;;;;;;;;;;5063518;28;20052;-69
2023/08/25 09:37:57;;;;;;;18.70;11.57;;;;;;;;;;5060991;28;20060;-69
2023/08/25 09:40:25;;;;;;;24.35;12.50;;;;;;;;;;5052830;28;20484;-69
2023/08/25 09:42:57;;;;;;;22.13;12.20;;;;;;;;;;5069915;28;20098;-69
2023/08/25 09:45:28;;;;;;;19.23;11.70;;;;;;;;;;5064588;28;20044;-69
2023/08/25 09:47:55;;;;;;;18.55;11.98;;;;;;;;;;5069778;28;20087;-69
2023/08/25 09:50:23;;;;;;;17.33;10.90;;;;;;;;;;5045376;28;20099;-69
2023/08/25 09:52:53;;;;;;;24.77;12.70;;;;;;;;;;5069221;28;20117;-69
2023/08/25 09:55:22;;;;;;;20.63;11.90;;;;;;;;;;5061764;28;20036;-69
2023/08/25 09:57:49;;;;;;;19.35;11.93;;;;;;;;;;5068150;28;20056;-69
2023/08/25 10:00:17;;;;;;;21.52;12.13;;;;;;;;;;5049920;28;20044;-69
2023/08/25 10:02:46;;;;;;;20.30;11.43;;;;;;;;;;5067691;28;20040;-69
2023/08/25 10:05:13;;;;;;;21.65;11.65;;;;;;;;;;5068601;28;20039;-69
2023/08/25 10:07:41;;;;;;;18.58;11.43;;;;;;;;;;5068475;28;20044;-69
2023/08/25 10:10:09;;;;;;;20.85;11.82;;;;;;;;;;5062868;28;20068;-69
2023/08/25 10:12:38;;;;;;;19.45;10.98;;;;;;;;;;5067491;28;20048;-69
2023/08/25 10:15:08;;;;;;;20.20;11.52;;;;;;;;;;5068182;28;20048;-69
2023/08/25 10:17:35;;;;;;;14.95;9.90;;;;;;;;;;5063075;28;20045;-69
2023/08/25 10:20:04;;;;;;;19.00;9.57;;;;;;;;;;5052007;28;20071;-69
2023/08/25 10:22:32;;;;;;;19.13;10.25;;;;;;;;;;5069292;28;20129;-69
2023/08/25 10:25:01;;;;;;;16.83;10.82;;;;;;;;;;5070710;28;20052;-69
2023/08/25 10:27:29;;;;;;;18.20;11.20;;;;;;;;;;5067619;28;20075;-69
2023/08/25 10:29:57;;;;;;;20.23;10.85;;;;;;;;;;5064164;28;20054;-69
2023/08/25 10:32:24;;;;;;;15.68;10.27;;;;;;;;;;5066011;28;20492;-69
2023/08/25 10:34:53;;;;;;;17.13;9.55;;;;;;;;;;5061044;28;20056;-69
2023/08/25 10:37:25;;;;;;;14.65;9.32;;;;;;;;;;5068653;28;20503;-69
2023/08/25 10:39:53;;;;;;;15.98;9.73;;;;;;;;;;5066152;28;20053;-68
2023/08/25 10:42:22;;;;;;;15.60;9.80;;;;;;;;;;5064002;28;20082;-69
2023/08/25 10:44:54;;;;;;;14.48;9.60;;;;;;;;;;5058036;28;20131;-69
2023/08/25 10:47:22;;;;;;;15.70;9.38;;;;;;;;;;5066408;28;20048;-68
2023/08/25 10:49:53;;;;;;;15.55;9.93;;;;;;;;;;5067998;28;20055;-69
2023/08/25 10:52:21;;;;;;;18.45;10.32;;;;;;;;;;5066130;28;20048;-69
2023/08/25 10:54:51;;;;;;;15.32;9.63;;;;;;;;;;5064266;28;20052;-69
2023/08/25 10:57:19;;;;;;;14.13;8.82;;;;;;;;;;5061898;28;20056;-69
2023/08/25 10:59:50;;;;;;;12.02;8.98;;;;;;;;;;5067651;28;20048;-69
2023/08/25 11:02:32;;;;;;;14.00;8.50;;;;;;;;;;5070339;28;20090;-68
2023/08/25 11:05:14;;;;;;;13.93;8.05;;;;;;;;;;5068836;28;20043;-68
2023/08/25 11:07:45;;;;;;;16.42;8.75;;;;;;;;;;5066296;28;20056;-69
2023/08/25 11:10:14;;;;;;;12.32;8.15;;;;;;;;;;5066452;28;20041;-68
2023/08/25 11:12:42;;;;;;;16.65;7.70;;;;;;;;;;5065258;28;20049;-69
2023/08/25 11:15:09;;;;;;;12.50;7.28;;;;;;;;;;5059621;28;20049;-69
2023/08/25 11:17:37;;;;;;;12.70;7.65;;;;;;;;;;5067368;28;20049;-68
2023/08/25 11:20:05;;;;;;;10.95;6.93;;;;;;;;;;5052209;28;20052;-68
2023/08/25 11:22:32;;;;;;;13.68;7.63;;;;;;;;;;5066428;28;20045;-68
2023/08/25 11:24:59;;;;;;;13.82;6.97;;;;;;;;;;5068247;28;20055;-69
2023/08/25 11:27:28;;;;;;;12.52;6.82;;;;;;;;;;5051033;28;20049;-69
2023/08/25 11:30:08;;;;;;;8.88;6.18;;;;;;;;;;5068501;28;20407;-68
2023/08/25 11:32:36;;;;;;;8.73;6.05;;;;;;;;;;5068707;28;20496;-69
2023/08/25 11:35:04;;;;;;;14.20;6.57;;;;;;;;;;5071601;28;20047;-68
2023/08/25 11:37:31;;;;;;;10.95;6.60;;;;;;;;;;5063714;28;20064;-69
2023/08/25 11:39:59;;;;;;;9.48;6.70;;;;;;;;;;5071347;28;20052;-69
2023/08/25 11:42:27;;;;;;;12.20;7.00;;;;;;;;;;5072713;28;20087;-69
2023/08/25 11:44:55;;;;;;;9.70;6.50;;;;;;;;;;5071633;28;20040;-69
2023/08/25 11:47:22;;;;;;;9.02;6.15;;;;;;;;;;5073034;28;20045;-68
2023/08/25 11:49:50;;;;;;;13.07;7.43;;;;;;;;;;5061444;28;20057;-69
2023/08/25 11:52:17;;;;;;;10.98;7.20;;;;;;;;;;5059376;28;20466;-68
2023/08/25 11:54:45;;;;;;;14.68;7.82;;;;;;;;;;5068302;28;20608;-69
2023/08/25 11:57:12;;;;;;;11.15;7.65;;;;;;;;;;5062446;28;20044;-69
2023/08/25 11:59:43;;;;;;;15.07;6.95;;;;;;;;;;5071430;28;20052;-69
2023/08/25 12:02:15;;;;;;;12.00;7.30;;;;;;;;;;5065152;28;20041;-69
2023/08/25 12:04:52;;;;;;;13.60;8.35;;;;;;;;;;5062122;28;20065;-69
2023/08/25 12:07:22;;;;;;;13.25;8.70;;;;;;;;;;5068329;28;20052;-69
2023/08/25 12:09:54;;;;;;;14.48;8.73;;;;;;;;;;5070420;28;20071;-69
2023/08/25 12:12:21;;;;;;;11.77;8.37;;;;;;;;;;5069500;28;20055;-69
2023/08/25 12:14:51;;;;;;;14.38;8.50;;;;;;;;;;5069749;28;20310;-69
2023/08/25 12:17:23;;;;;;;13.60;7.90;;;;;;;;;;5051659;28;20044;-69
2023/08/25 12:19:50;;;;;;;12.63;8.32;;;;;;;;;;5064276;28;20041;-69
2023/08/25 12:22:18;;;;;;;15.38;8.02;;;;;;;;;;5069087;28;20700;-69
2023/08/25 12:24:46;;;;;;;10.98;7.57;;;;;;;;;;5067869;28;20047;-69
2023/08/25 12:27:13;;;;;;;13.38;8.45;;;;;;;;;;5068829;28;20140;-68
2023/08/25 12:29:41;;;;;;;14.57;8.32;;;;;;;;;;5064854;28;20051;-68
2023/08/25 12:32:09;;;;;;;12.27;8.70;;;;;;;;;;5066077;28;20063;-68
2023/08/25 12:34:37;;;;;;;11.25;7.57;;;;;;;;;;5064965;28;20081;-69
2023/08/25 12:37:04;;;;;;;12.95;7.50;;;;;;;;;;5065534;28;20041;-68
2023/08/25 12:39:31;;;;;;;11.85;7.22;;;;;;;;;;5066653;28;20048;-68
2023/08/25 12:41:59;;;;;;;12.13;7.65;;;;;;;;;;5068698;28;20048;-68
2023/08/25 12:44:26;;;;;;;11.90;7.18;;;;;;;;;;5050852;28;20135;-68
2023/08/25 12:46:54;;;;;;;10.40;6.68;;;;;;;;;;5057783;28;20052;-68
2023/08/25 12:49:22;;;;;;;10.48;6.57;;;;;;;;;;5068816;28;20131;-68
2023/08/25 12:51:49;;;;;;;9.63;6.07;;;;;;;;;;5069184;28;20048;-68
2023/08/25 12:54:18;;;;;;;8.18;5.60;;;;;;;;;;5064706;28;20049;-68
2023/08/25 12:56:45;;;;;;;9.05;4.90;;;;;;;;;;5071701;28;20052;-68
2023/08/25 12:59:13;;;;;;;8.32;4.97;;;;;;;;;;5070089;28;20051;-68
2023/08/25 13:01:40;;;;;;;9.05;4.80;;;;;;;;;;5065637;28;21366;-68
2023/08/25 13:04:07;;;;;;;11.73;5.07;;;;;;;;;;5064910;28;20053;-68
2023/08/25 13:06:36;;;;;;;9.23;5.70;;;;;;;;;;5064772;28;20048;-68
2023/08/25 13:09:04;;;;;;;8.68;6.05;;;;;;;;;;5059597;28;20098;-68
2023/08/25 13:11:31;;;;;;;8.27;5.20;;;;;;;;;;5067178;28;20059;-68
2023/08/25 13:13:59;;;;;;;7.93;5.75;;;;;;;;;;5068759;28;20049;-69
2023/08/25 13:16:26;;;;;;;8.48;5.35;;;;;;;;;;5065264;28;20170;-68
2023/08/25 13:18:54;;;;;;;8.23;5.07;;;;;;;;;;5064769;28;20048;-68
2023/08/25 13:21:22;;;;;;;9.50;5.10;;;;;;;;;;5047095;28;20048;-68
2023/08/25 13:23:50;;;;;;;6.85;5.00;;;;;;;;;;5068738;28;20056;-68
2023/08/25 13:26:18;;;;;;;8.07;4.60;;;;;;;;;;5070788;28;20047;-68
2023/08/25 13:28:45;;;;;;;10.13;5.45;;;;;;;;;;5068094;28;20052;-69
2023/08/25 13:31:12;;;;;;;13.57;5.68;;;;;;;;;;5067448;28;20044;-68
2023/08/25 13:33:39;;;;;;;7.93;4.80;;;;;;;;;;5060590;28;20398;-69
2023/08/25 13:36:06;;;;;;;7.65;5.47;;;;;;;;;;5053052;28;20048;-69
2023/08/25 13:38:34;;;;;;;8.63;5.40;;;;;;;;;;5064763;28;20052;-69
2023/08/25 13:41:02;;;;;;;9.38;5.65;;;;;;;;;;5067384;28;20067;-69
2023/08/25 13:43:30;;;;;;;9.32;5.03;;;;;;;;;;5064368;28;20048;-69
2023/08/25 13:45:57;;;;;;;12.15;6.63;;;;;;;;;;5068794;28;20123;-68
2023/08/25 13:48:24;;;;;;;10.65;6.30;;;;;;;;;;5067699;28;20543;-68
2023/08/25 13:50:51;;;;;;;12.13;6.78;;;;;;;;;;5069075;28;20506;-69
2023/08/25 13:53:18;;;;;;;8.23;5.75;;;;;;;;;;5066152;28;20242;-69
2023/08/25 13:55:46;;;;;;;8.57;6.03;;;;;;;;;;5068842;28;20064;-69
2023/08/25 13:58:14;;;;;;;12.57;6.45;;;;;;;;;;5044243;28;20075;-69
2023/08/25 14:00:42;;;;;;;11.05;6.57;;;;;;;;;;5064643;28;20139;-68
2023/08/25 14:03:09;;;;;;;11.15;6.03;;;;;;;;;;5070102;28;20053;-68
2023/08/25 14:05:38;;;;;;;9.98;5.13;;;;;;;;;;5063193;28;20084;-68
2023/08/25 14:08:06;;;;;;;7.80;4.95;;;;;;;;;;5061876;28;20048;-68
2023/08/25 14:10:33;;;;;;;10.90;5.20;;;;;;;;;;5061561;28;20142;-69
2023/08/25 14:13:01;;;;;;;11.20;5.13;;;;;;;;;;5065174;28;20052;-68
2023/08/25 14:15:29;;;;;;;7.07;4.75;;;;;;;;;;5069094;28;20147;-69
2023/08/25 14:17:56;;;;;;;7.05;4.70;;;;;;;;;;5060760;28;20056;-68
2023/08/25 14:20:24;;;;;;;5.30;4.40;;;;;;;;;;5067981;28;20044;-68
2023/08/25 14:22:51;;;;;;;8.90;4.50;;;;;;;;;;5066516;28;20041;-68